createdAt,value
2019-03-28T00:00:19.693Z,93.09
2019-03-28T00:01:24.006Z,93.04
2019-03-28T00:02:28.282Z,93.02
2019-03-28T00:03:32.516Z,93.00
2019-03-28T00:04:36.670Z,92.94
2019-03-28T00:05:40.924Z,92.98
2019-03-28T00:06:45.247Z,92.97
2019-03-28T00:07:49.383Z,92.94
2019-03-28T00:08:54.096Z,92.95
2019-03-28T00:09:57.851Z,92.95
2019-03-28T00:11:02.186Z,92.86
2019-03-28T00:12:06.426Z,92.84
2019-03-28T00:13:10.724Z,92.86
2019-03-28T00:14:14.965Z,92.80
2019-03-28T00:15:19.238Z,92.77
2019-03-28T00:16:23.426Z,92.75
2019-03-28T00:17:27.753Z,92.84
2019-03-28T00:18:32.019Z,92.90
2019-03-28T00:19:36.256Z,92.87
2019-03-28T00:20:40.560Z,92.84
2019-03-28T00:21:44.776Z,92.77
2019-03-28T00:22:48.967Z,92.81
2019-03-28T00:23:53.282Z,92.79
2019-03-28T00:24:57.523Z,92.83
2019-03-28T00:26:01.711Z,92.75
2019-03-28T00:27:06.019Z,92.78
2019-03-28T00:28:10.223Z,92.77
2019-03-28T00:29:14.431Z,92.79
2019-03-28T00:30:19.185Z,92.89
2019-03-28T00:31:29.928Z,92.95
2019-03-28T00:32:32.798Z,92.97
2019-03-28T00:33:37.023Z,92.95
2019-03-28T00:34:41.362Z,92.95
2019-03-28T00:35:45.589Z,92.97
2019-03-28T00:36:49.889Z,93.05
2019-03-28T00:37:54.167Z,93.09
2019-03-28T00:38:58.411Z,93.06
2019-03-28T00:40:02.679Z,93.02
2019-03-28T00:41:06.972Z,93.00
2019-03-28T00:42:11.250Z,92.97
2019-03-28T00:43:15.515Z,93.02
2019-03-28T00:44:19.667Z,93.01
2019-03-28T00:45:23.984Z,93.04
2019-03-28T00:46:28.366Z,93.04
2019-03-28T00:47:32.508Z,93.01
2019-03-28T00:48:36.821Z,93.10
2019-03-28T00:49:41.065Z,93.13
2019-03-28T00:50:45.357Z,93.08
2019-03-28T00:51:50.374Z,93.10
2019-03-28T00:52:53.909Z,93.17
2019-03-28T00:53:58.179Z,93.22
2019-03-28T00:55:02.439Z,93.22
2019-03-28T00:56:06.735Z,93.21
2019-03-28T00:57:11.075Z,93.30
2019-03-28T00:58:15.313Z,93.32
2019-03-28T00:59:19.548Z,93.37
2019-03-28T01:00:23.836Z,93.45
2019-03-28T01:01:28.013Z,93.49
2019-03-28T01:02:32.352Z,93.52
2019-03-28T01:03:36.781Z,93.55
2019-03-28T01:04:40.923Z,93.53
2019-03-28T01:05:45.294Z,93.54
2019-03-28T01:06:49.536Z,93.58
2019-03-28T01:07:53.813Z,93.56
2019-03-28T01:08:58.071Z,93.55
2019-03-28T01:10:02.305Z,93.50
2019-03-28T01:11:06.655Z,93.50
2019-03-28T01:12:10.849Z,93.48
2019-03-28T01:13:15.169Z,93.42
2019-03-28T01:14:19.435Z,93.39
2019-03-28T01:15:23.732Z,93.41
2019-03-28T01:16:27.982Z,93.37
2019-03-28T01:17:32.232Z,93.40
2019-03-28T01:18:36.511Z,93.41
2019-03-28T01:19:40.817Z,93.43
2019-03-28T01:20:45.109Z,93.42
2019-03-28T01:21:49.361Z,93.45
2019-03-28T01:22:53.687Z,93.45
2019-03-28T01:23:57.958Z,93.47
2019-03-28T01:25:02.307Z,93.42
2019-03-28T01:26:06.527Z,93.49
2019-03-28T01:27:10.767Z,93.49
2019-03-28T01:28:15.067Z,93.49
2019-03-28T01:29:19.319Z,93.54
2019-03-28T01:30:23.598Z,93.54
2019-03-28T01:31:27.853Z,93.52
2019-03-28T01:32:32.106Z,93.50
2019-03-28T01:33:36.408Z,93.56
2019-03-28T01:34:40.631Z,93.54
2019-03-28T01:35:45.012Z,93.53
2019-03-28T01:36:49.218Z,93.50
2019-03-28T01:37:54.366Z,93.45
2019-03-28T01:38:57.909Z,93.49
2019-03-28T01:40:02.218Z,93.53
2019-03-28T01:41:06.417Z,93.47
2019-03-28T01:42:10.698Z,93.44
2019-03-28T01:43:15.072Z,93.47
2019-03-28T01:44:19.316Z,93.45
2019-03-28T01:45:23.625Z,93.52
2019-03-28T01:46:27.869Z,93.49
2019-03-28T01:47:32.131Z,93.52
2019-03-28T01:48:36.422Z,93.55
2019-03-28T01:49:40.731Z,93.58
2019-03-28T01:50:45.076Z,93.60
2019-03-28T01:51:49.293Z,93.62
2019-03-28T01:52:53.624Z,93.63
2019-03-28T01:53:57.882Z,93.59
2019-03-28T01:55:02.239Z,93.57
2019-03-28T01:56:06.374Z,93.60
2019-03-28T01:57:11.592Z,93.59
2019-03-28T01:58:14.888Z,93.56
2019-03-28T01:59:19.234Z,93.59
2019-03-28T02:00:23.405Z,93.60
2019-03-28T02:01:27.628Z,93.60
2019-03-28T02:02:32.003Z,93.56
2019-03-28T02:03:36.699Z,93.52
2019-03-28T02:04:40.574Z,93.52
2019-03-28T02:05:44.809Z,93.56
2019-03-28T02:06:49.078Z,93.56
2019-03-28T02:07:53.381Z,93.59
2019-03-28T02:08:57.679Z,93.67
2019-03-28T02:10:02.042Z,93.69
2019-03-28T02:11:06.239Z,93.65
2019-03-28T02:12:10.560Z,93.64
2019-03-28T02:13:14.854Z,93.64
2019-03-28T02:14:19.122Z,93.63
2019-03-28T02:15:23.419Z,93.64
2019-03-28T02:16:27.524Z,93.66
2019-03-28T02:17:31.873Z,93.67
2019-03-28T02:18:36.121Z,93.67
2019-03-28T02:19:40.417Z,93.64
2019-03-28T02:20:44.697Z,93.65
2019-03-28T02:21:48.946Z,93.62
2019-03-28T02:22:53.232Z,93.64
2019-03-28T02:23:57.490Z,93.63
2019-03-28T02:25:01.799Z,93.65
2019-03-28T02:26:06.050Z,93.67
2019-03-28T02:27:23.091Z,93.67
2019-03-28T02:28:14.608Z,93.66
2019-03-28T02:29:18.864Z,93.64
2019-03-28T02:30:23.178Z,93.61
2019-03-28T02:31:27.535Z,93.66
2019-03-28T02:32:31.751Z,93.67
2019-03-28T02:33:36.007Z,93.59
2019-03-28T02:34:40.305Z,93.60
2019-03-28T02:35:44.605Z,93.54
2019-03-28T02:36:48.872Z,93.65
2019-03-28T02:37:53.131Z,93.69
2019-03-28T02:38:58.573Z,93.72
2019-03-28T02:40:01.725Z,93.72
2019-03-28T02:41:05.953Z,93.69
2019-03-28T02:42:10.240Z,93.71
2019-03-28T02:43:14.485Z,93.70
2019-03-28T02:44:18.792Z,93.72
2019-03-28T02:45:22.964Z,93.67
2019-03-28T02:46:27.303Z,93.70
2019-03-28T02:47:31.640Z,93.70
2019-03-28T02:48:35.903Z,93.69
2019-03-28T02:49:40.154Z,93.65
2019-03-28T02:50:44.412Z,93.69
2019-03-28T02:51:48.654Z,93.73
2019-03-28T02:52:52.959Z,93.72
2019-03-28T02:53:57.309Z,93.73
2019-03-28T02:55:01.545Z,93.72
2019-03-28T02:56:05.787Z,93.73
2019-03-28T02:57:10.045Z,93.76
2019-03-28T02:58:14.316Z,93.80
2019-03-28T02:59:18.614Z,93.85
2019-03-28T03:00:22.892Z,93.85
2019-03-28T03:01:30.075Z,93.84
2019-03-28T03:02:32.346Z,93.83
2019-03-28T03:03:35.713Z,93.81
2019-03-28T03:04:39.960Z,93.82
2019-03-28T03:05:44.242Z,93.75
2019-03-28T03:06:48.484Z,93.80
2019-03-28T03:07:52.727Z,93.83
2019-03-28T03:08:56.987Z,93.85
2019-03-28T03:10:01.259Z,93.85
2019-03-28T03:11:05.496Z,93.90
2019-03-28T03:12:09.755Z,93.88
2019-03-28T03:13:14.035Z,93.89
2019-03-28T03:14:18.279Z,93.90
2019-03-28T03:15:22.536Z,93.88
2019-03-28T03:16:26.771Z,93.89
2019-03-28T03:17:31.033Z,93.89
2019-03-28T03:18:35.340Z,93.89
2019-03-28T03:19:39.596Z,93.88
2019-03-28T03:20:43.945Z,93.91
2019-03-28T03:21:48.113Z,93.93
2019-03-28T03:22:52.535Z,93.91
2019-03-28T03:23:56.724Z,93.88
2019-03-28T03:25:01.048Z,93.84
2019-03-28T03:26:05.301Z,93.80
2019-03-28T03:27:09.577Z,93.78
2019-03-28T03:28:13.792Z,93.77
2019-03-28T03:29:18.105Z,93.77
2019-03-28T03:30:22.463Z,93.75
2019-03-28T03:31:26.701Z,93.74
2019-03-28T03:32:30.945Z,93.75
2019-03-28T03:33:37.182Z,93.73
2019-03-28T03:34:39.565Z,93.75
2019-03-28T03:35:43.770Z,93.78
2019-03-28T03:36:48.065Z,93.78
2019-03-28T03:37:52.340Z,93.79
2019-03-28T03:38:56.618Z,93.74
2019-03-28T03:40:00.933Z,93.80
2019-03-28T03:41:05.006Z,93.80
2019-03-28T03:42:09.353Z,93.83
2019-03-28T03:43:13.550Z,93.88
2019-03-28T03:44:17.888Z,93.89
2019-03-28T03:45:22.143Z,93.90
2019-03-28T03:46:27.488Z,93.90
2019-03-28T03:47:30.704Z,93.89
2019-03-28T03:48:34.976Z,93.89
2019-03-28T03:49:39.312Z,93.91
2019-03-28T03:50:43.569Z,93.95
2019-03-28T03:51:47.827Z,93.91
2019-03-28T03:52:52.065Z,93.91
2019-03-28T03:53:56.355Z,93.95
2019-03-28T03:55:00.608Z,93.99
2019-03-28T03:56:04.907Z,93.99
2019-03-28T03:57:09.200Z,93.95
2019-03-28T03:58:16.024Z,93.93
2019-03-28T03:59:17.743Z,93.92
2019-03-28T04:00:22.029Z,93.92
2019-03-28T04:01:26.278Z,93.92
2019-03-28T04:02:30.517Z,93.89
2019-03-28T04:03:34.788Z,93.85
2019-03-28T04:04:38.966Z,93.84
2019-03-28T04:05:43.310Z,93.83
2019-03-28T04:06:47.719Z,93.88
2019-03-28T04:07:51.824Z,93.89
2019-03-28T04:08:56.198Z,93.91
2019-03-28T04:10:00.655Z,93.91
2019-03-28T04:11:04.795Z,93.95
2019-03-28T04:12:09.012Z,93.92
2019-03-28T04:13:13.275Z,93.92
2019-03-28T04:14:17.559Z,93.97
2019-03-28T04:15:21.915Z,94.00
2019-03-28T04:16:26.140Z,94.00
2019-03-28T04:17:30.377Z,93.97
2019-03-28T04:18:34.641Z,94.01
2019-03-28T04:19:38.996Z,94.04
2019-03-28T04:20:43.224Z,94.09
2019-03-28T04:21:47.470Z,94.08
2019-03-28T04:22:52.285Z,94.12
2019-03-28T04:23:56.328Z,94.09
2019-03-28T04:25:00.568Z,94.12
2019-03-28T04:26:05.883Z,94.14
2019-03-28T04:27:09.111Z,94.17
2019-03-28T04:28:30.056Z,94.14
2019-03-28T04:29:17.652Z,94.17
2019-03-28T04:30:22.695Z,94.14
2019-03-28T04:31:26.139Z,94.16
2019-03-28T04:32:30.413Z,94.12
2019-03-28T04:33:35.762Z,94.12
2019-03-28T04:34:39.021Z,94.12
2019-03-28T04:35:43.215Z,94.12
2019-03-28T04:36:47.522Z,94.17
2019-03-28T04:37:51.788Z,94.22
2019-03-28T04:38:56.041Z,94.19
2019-03-28T04:40:00.484Z,94.17
2019-03-28T04:41:04.600Z,94.16
2019-03-28T04:42:08.834Z,94.13
2019-03-28T04:43:13.087Z,94.17
2019-03-28T04:44:17.376Z,94.14
2019-03-28T04:45:21.607Z,94.16
2019-03-28T04:46:25.915Z,94.19
2019-03-28T04:47:30.172Z,94.17
2019-03-28T04:48:34.406Z,94.17
2019-03-28T04:49:38.673Z,94.15
2019-03-28T04:50:42.915Z,94.13
2019-03-28T04:51:47.129Z,94.13
2019-03-28T04:52:52.894Z,94.15
2019-03-28T04:53:56.435Z,94.19
2019-03-28T04:54:59.994Z,94.18
2019-03-28T04:56:04.235Z,94.20
2019-03-28T04:57:08.434Z,94.16
2019-03-28T04:58:12.767Z,94.16
2019-03-28T04:59:17.041Z,94.16
2019-03-28T05:00:21.321Z,94.13
2019-03-28T05:01:25.717Z,94.14
2019-03-28T05:02:29.879Z,94.12
2019-03-28T05:03:34.048Z,94.13
2019-03-28T05:04:38.483Z,94.14
2019-03-28T05:05:42.714Z,94.11
2019-03-28T05:06:47.009Z,94.09
2019-03-28T05:07:51.252Z,94.04
2019-03-28T05:08:55.529Z,94.02
2019-03-28T05:09:59.810Z,94.05
2019-03-28T05:11:04.073Z,94.07
2019-03-28T05:12:08.242Z,94.07
2019-03-28T05:13:12.562Z,94.07
2019-03-28T05:14:16.914Z,94.08
2019-03-28T05:15:21.107Z,94.10
2019-03-28T05:16:25.365Z,94.10
2019-03-28T05:17:29.676Z,94.10
2019-03-28T05:18:33.961Z,94.10
2019-03-28T05:19:38.325Z,94.10
2019-03-28T05:20:42.660Z,94.07
2019-03-28T05:21:46.952Z,94.09
2019-03-28T05:22:51.350Z,94.12
2019-03-28T05:23:55.466Z,94.12
2019-03-28T05:24:59.776Z,94.09
2019-03-28T05:26:04.036Z,94.07
2019-03-28T05:27:08.305Z,94.11
2019-03-28T05:28:12.630Z,94.10
2019-03-28T05:29:16.972Z,94.11
2019-03-28T05:30:21.170Z,94.10
2019-03-28T05:31:25.441Z,94.08
2019-03-28T05:32:29.804Z,94.11
2019-03-28T05:33:34.109Z,94.13
2019-03-28T05:34:38.337Z,94.14
2019-03-28T05:35:42.674Z,94.11
2019-03-28T05:36:46.930Z,94.16
2019-03-28T05:37:51.240Z,94.13
2019-03-28T05:38:55.491Z,94.13
2019-03-28T05:39:59.798Z,94.11
2019-03-28T05:41:03.926Z,94.10
2019-03-28T05:42:08.275Z,94.04
2019-03-28T05:43:12.577Z,94.02
2019-03-28T05:44:16.900Z,94.04
2019-03-28T05:45:21.147Z,94.05
2019-03-28T05:46:25.549Z,94.03
2019-03-28T05:47:29.704Z,94.03
2019-03-28T05:48:33.994Z,94.04
2019-03-28T05:49:38.216Z,94.07
2019-03-28T05:50:42.476Z,94.10
2019-03-28T05:51:46.832Z,94.15
2019-03-28T05:52:51.073Z,94.17
2019-03-28T05:53:55.352Z,94.19
2019-03-28T05:54:59.581Z,94.23
2019-03-28T05:56:03.846Z,94.20
2019-03-28T05:57:08.195Z,94.17
2019-03-28T05:58:12.466Z,94.18
2019-03-28T05:59:16.719Z,94.20
2019-03-28T06:00:20.993Z,94.19
2019-03-28T06:01:25.220Z,94.18
2019-03-28T06:02:29.406Z,94.17
2019-03-28T06:03:33.739Z,94.13
2019-03-28T06:04:38.003Z,94.12
2019-03-28T06:05:42.282Z,94.14
2019-03-28T06:06:46.597Z,94.18
2019-03-28T06:07:50.901Z,94.23
2019-03-28T06:08:55.210Z,94.26
2019-03-28T06:09:59.429Z,94.30
2019-03-28T06:11:03.815Z,94.33
2019-03-28T06:12:08.118Z,94.35
2019-03-28T06:13:12.333Z,94.36
2019-03-28T06:14:16.605Z,94.41
2019-03-28T06:15:20.813Z,94.38
2019-03-28T06:16:25.010Z,94.36
2019-03-28T06:17:29.126Z,94.35
2019-03-28T06:18:33.514Z,94.33
2019-03-28T06:19:38.382Z,94.31
2019-03-28T06:20:42.033Z,94.32
2019-03-28T06:21:46.901Z,94.31
2019-03-28T06:22:50.594Z,94.32
2019-03-28T06:23:54.980Z,94.28
2019-03-28T06:24:59.175Z,94.28
2019-03-28T06:26:03.342Z,94.29
2019-03-28T06:27:07.762Z,94.29
2019-03-28T06:28:11.897Z,94.31
2019-03-28T06:29:23.833Z,94.33
2019-03-28T06:30:20.449Z,94.33
2019-03-28T06:31:24.667Z,94.31
2019-03-28T06:32:41.939Z,94.31
2019-03-28T06:33:33.243Z,94.30
2019-03-28T06:34:37.500Z,94.27
2019-03-28T06:35:41.768Z,94.28
2019-03-28T06:36:45.994Z,94.29
2019-03-28T06:37:51.627Z,94.30
2019-03-28T06:38:54.577Z,94.30
2019-03-28T06:39:58.820Z,94.31
2019-03-28T06:41:03.206Z,94.34
2019-03-28T06:42:07.406Z,94.36
2019-03-28T06:43:11.626Z,94.38
2019-03-28T06:44:15.981Z,94.38
2019-03-28T06:45:20.254Z,94.38
2019-03-28T06:46:24.532Z,94.42
2019-03-28T06:47:28.800Z,94.36
2019-03-28T06:48:33.090Z,94.36
2019-03-28T06:49:37.397Z,94.33
2019-03-28T06:50:41.660Z,94.32
2019-03-28T06:51:45.958Z,94.31
2019-03-28T06:52:50.236Z,94.28
2019-03-28T06:53:57.061Z,94.27
2019-03-28T06:54:58.794Z,94.26
2019-03-28T06:56:03.043Z,94.23
2019-03-28T06:57:07.324Z,94.23
2019-03-28T06:58:11.704Z,94.23
2019-03-28T06:59:15.930Z,94.23
2019-03-28T07:00:20.225Z,94.18
2019-03-28T07:01:27.477Z,94.19
2019-03-28T07:02:30.854Z,94.19
2019-03-28T07:03:35.130Z,94.21
2019-03-28T07:04:39.372Z,94.16
2019-03-28T07:05:43.613Z,94.18
2019-03-28T07:06:47.994Z,94.18
2019-03-28T07:07:52.150Z,94.16
2019-03-28T07:08:56.585Z,94.13
2019-03-28T07:10:03.856Z,94.10
2019-03-28T07:11:07.208Z,94.09
2019-03-28T07:12:11.472Z,93.99
2019-03-28T07:13:15.712Z,93.97
2019-03-28T07:14:19.910Z,93.97
2019-03-28T07:15:24.252Z,93.95
2019-03-28T07:16:28.566Z,93.87
2019-03-28T07:17:32.822Z,93.84
2019-03-28T07:18:37.206Z,93.86
2019-03-28T07:19:41.511Z,93.86
2019-03-28T07:20:45.725Z,93.86
2019-03-28T07:21:49.982Z,93.87
2019-03-28T07:22:54.439Z,93.90
2019-03-28T07:23:58.651Z,93.94
2019-03-28T07:25:02.900Z,93.92
2019-03-28T07:26:07.186Z,93.93
2019-03-28T07:27:11.452Z,93.95
2019-03-28T07:28:15.733Z,93.96
2019-03-28T07:29:20.038Z,93.99
2019-03-28T07:30:24.298Z,94.01
2019-03-28T07:31:28.565Z,94.04
2019-03-28T07:32:32.849Z,94.06
2019-03-28T07:33:37.159Z,94.11
2019-03-28T07:34:41.491Z,94.11
2019-03-28T07:35:45.721Z,94.15
2019-03-28T07:36:50.116Z,94.19
2019-03-28T07:37:54.379Z,94.20
2019-03-28T07:38:58.628Z,94.19
2019-03-28T07:40:02.855Z,94.24
2019-03-28T07:41:07.177Z,94.22
2019-03-28T07:42:11.481Z,94.25
2019-03-28T07:43:15.715Z,94.27
2019-03-28T07:44:19.892Z,94.27
2019-03-28T07:45:24.190Z,94.30
2019-03-28T07:46:28.618Z,94.27
2019-03-28T07:47:32.855Z,94.26
2019-03-28T07:48:37.130Z,94.35
2019-03-28T07:49:41.429Z,94.27
2019-03-28T07:50:45.619Z,94.35
2019-03-28T07:51:50.002Z,94.38
2019-03-28T07:52:54.129Z,94.38
2019-03-28T07:53:58.467Z,94.37
2019-03-28T07:55:02.655Z,94.37
2019-03-28T07:56:06.873Z,94.41
2019-03-28T07:57:11.215Z,94.42
2019-03-28T07:58:15.496Z,94.42
2019-03-28T07:59:19.798Z,94.42
2019-03-28T08:00:24.080Z,94.42
2019-03-28T08:01:28.309Z,94.36
2019-03-28T08:02:32.611Z,94.24
2019-03-28T08:03:39.969Z,94.32
2019-03-28T08:04:41.204Z,94.34
2019-03-28T08:05:45.507Z,94.35
2019-03-28T08:06:50.542Z,94.34
2019-03-28T08:07:54.023Z,94.32
2019-03-28T08:08:58.326Z,94.31
2019-03-28T08:10:02.675Z,94.29
2019-03-28T08:11:07.071Z,94.26
2019-03-28T08:12:22.409Z,94.24
2019-03-28T08:13:15.587Z,94.22
2019-03-28T08:14:19.669Z,94.18
2019-03-28T08:15:24.058Z,94.19
2019-03-28T08:16:28.972Z,94.19
2019-03-28T08:17:33.252Z,94.21
2019-03-28T08:18:36.973Z,94.21
2019-03-28T08:19:41.671Z,94.20
2019-03-28T08:20:45.558Z,94.21
2019-03-28T08:21:49.839Z,94.16
2019-03-28T08:22:54.154Z,94.14
2019-03-28T08:23:58.420Z,94.10
2019-03-28T08:25:02.795Z,94.09
2019-03-28T08:26:07.010Z,94.08
2019-03-28T08:27:11.256Z,94.09
2019-03-28T08:28:15.559Z,94.11
2019-03-28T08:29:19.839Z,94.11
2019-03-28T08:30:24.096Z,94.11
2019-03-28T08:31:28.282Z,94.10
2019-03-28T08:32:32.599Z,94.11
2019-03-28T08:33:36.877Z,94.08
2019-03-28T08:34:41.175Z,94.04
2019-03-28T08:35:45.461Z,93.94
2019-03-28T08:36:49.793Z,94.06
2019-03-28T08:37:54.023Z,94.06
2019-03-28T08:38:58.320Z,94.09
2019-03-28T08:40:02.583Z,94.11
2019-03-28T08:41:07.224Z,94.12
2019-03-28T08:42:11.196Z,94.15
2019-03-28T08:43:15.427Z,94.16
2019-03-28T08:44:22.484Z,94.16
2019-03-28T08:45:23.961Z,94.17
2019-03-28T08:46:28.068Z,94.19
2019-03-28T08:47:32.597Z,94.16
2019-03-28T08:48:36.804Z,94.14
2019-03-28T08:49:41.141Z,94.14
2019-03-28T08:50:45.404Z,94.00
2019-03-28T08:51:49.797Z,94.01
2019-03-28T08:52:57.014Z,93.97
2019-03-28T08:54:00.388Z,93.96
2019-03-28T08:55:04.654Z,93.95
2019-03-28T08:56:09.043Z,93.97
2019-03-28T08:57:13.844Z,93.99
2019-03-28T08:58:17.675Z,93.96
2019-03-28T08:59:21.938Z,93.86
2019-03-28T09:00:33.018Z,93.78
2019-03-28T09:01:30.438Z,93.83
2019-03-28T09:02:34.740Z,93.78
2019-03-28T09:03:38.995Z,93.79
2019-03-28T09:04:43.223Z,93.78
2019-03-28T09:05:47.554Z,93.77
2019-03-28T09:06:51.841Z,93.71
2019-03-28T09:07:56.130Z,93.55
2019-03-28T09:09:00.444Z,93.45
2019-03-28T09:10:04.805Z,93.40
2019-03-28T09:11:09.049Z,93.41
2019-03-28T09:12:13.437Z,93.43
2019-03-28T09:13:17.688Z,93.47
2019-03-28T09:14:22.026Z,93.47
2019-03-28T09:15:26.309Z,93.41
2019-03-28T09:16:30.635Z,93.35
2019-03-28T09:17:34.922Z,93.34
2019-03-28T09:18:39.212Z,93.29
2019-03-28T09:19:43.320Z,93.21
2019-03-28T09:20:47.677Z,93.21
2019-03-28T09:21:51.996Z,93.22
2019-03-28T09:22:56.295Z,93.21
2019-03-28T09:24:00.589Z,93.16
2019-03-28T09:25:04.866Z,93.09
2019-03-28T09:26:09.178Z,93.05
2019-03-28T09:27:13.534Z,93.12
2019-03-28T09:28:17.730Z,93.10
2019-03-28T09:29:22.065Z,92.98
2019-03-28T09:30:26.366Z,92.91
2019-03-28T09:31:30.670Z,92.87
2019-03-28T09:32:34.861Z,92.78
2019-03-28T09:33:40.681Z,92.74
2019-03-28T09:34:43.444Z,92.73
2019-03-28T09:35:47.800Z,92.68
2019-03-28T09:36:52.142Z,92.60
2019-03-28T09:37:56.405Z,92.53
2019-03-28T09:39:00.831Z,92.33
2019-03-28T09:40:05.083Z,92.24
2019-03-28T09:41:09.346Z,92.17
2019-03-28T09:42:13.676Z,92.02
2019-03-28T09:43:18.026Z,92.06
2019-03-28T09:44:22.255Z,92.17
2019-03-28T09:45:26.588Z,92.07
2019-03-28T09:46:30.875Z,91.90
2019-03-28T09:47:35.105Z,91.85
2019-03-28T09:48:39.267Z,91.90
2019-03-28T09:49:43.647Z,91.98
2019-03-28T09:50:48.020Z,91.75
2019-03-28T09:51:52.278Z,91.60
2019-03-28T09:52:56.586Z,91.61
2019-03-28T09:54:00.890Z,91.71
2019-03-28T09:55:05.188Z,91.67
2019-03-28T09:56:09.422Z,91.59
2019-03-28T09:57:13.860Z,91.47
2019-03-28T09:58:18.124Z,91.52
2019-03-28T09:59:22.400Z,91.65
2019-03-28T10:00:26.698Z,91.59
2019-03-28T10:01:31.080Z,91.46
2019-03-28T10:02:35.332Z,91.42
2019-03-28T10:03:39.470Z,91.48
2019-03-28T10:04:43.839Z,91.56
2019-03-28T10:05:48.212Z,91.59
2019-03-28T10:06:52.482Z,91.59
2019-03-28T10:07:56.783Z,91.65
2019-03-28T10:09:01.055Z,91.59
2019-03-28T10:10:05.454Z,91.50
2019-03-28T10:11:09.648Z,91.48
2019-03-28T10:12:14.031Z,91.18
2019-03-28T10:13:18.346Z,90.95
2019-03-28T10:14:22.589Z,90.92
2019-03-28T10:15:26.806Z,90.94
2019-03-28T10:16:31.109Z,90.91
2019-03-28T10:17:35.310Z,90.76
2019-03-28T10:18:39.585Z,90.89
2019-03-28T10:19:43.978Z,91.11
2019-03-28T10:20:48.196Z,91.05
2019-03-28T10:21:52.271Z,91.09
2019-03-28T10:22:56.691Z,91.11
2019-03-28T10:24:00.821Z,91.06
2019-03-28T10:25:05.175Z,91.14
2019-03-28T10:26:09.489Z,91.00
2019-03-28T10:27:13.781Z,90.80
2019-03-28T10:28:18.105Z,90.79
2019-03-28T10:29:25.319Z,90.90
2019-03-28T10:30:28.756Z,91.04
2019-03-28T10:31:32.930Z,91.01
2019-03-28T10:32:37.171Z,91.00
2019-03-28T10:33:41.514Z,91.03
2019-03-28T10:34:45.794Z,91.10
2019-03-28T10:35:50.097Z,90.91
2019-03-28T10:36:54.454Z,90.85
2019-03-28T10:37:58.699Z,90.89
2019-03-28T10:39:02.963Z,90.95
2019-03-28T10:40:07.336Z,90.80
2019-03-28T10:41:11.586Z,90.83
2019-03-28T10:42:15.843Z,91.03
2019-03-28T10:43:20.068Z,91.13
2019-03-28T10:44:24.439Z,91.12
2019-03-28T10:45:28.627Z,90.95
2019-03-28T10:46:32.940Z,90.94
2019-03-28T10:47:37.150Z,90.87
2019-03-28T10:48:41.501Z,90.74
2019-03-28T10:49:45.809Z,90.76
2019-03-28T10:50:50.133Z,90.73
2019-03-28T10:51:54.425Z,90.75
2019-03-28T10:52:58.722Z,90.79
2019-03-28T10:54:03.058Z,90.83
2019-03-28T10:55:07.324Z,90.92
2019-03-28T10:56:21.391Z,90.82
2019-03-28T10:57:29.425Z,90.76
2019-03-28T10:58:20.297Z,90.79
2019-03-28T10:59:25.342Z,90.43
2019-03-28T11:00:28.871Z,90.36
2019-03-28T11:01:48.013Z,90.51
2019-03-28T11:02:38.694Z,90.48
2019-03-28T11:03:41.792Z,90.47
2019-03-28T11:04:46.030Z,90.56
2019-03-28T11:05:50.384Z,90.58
2019-03-28T11:06:54.648Z,90.53
2019-03-28T11:07:58.980Z,90.29
2019-03-28T11:09:03.290Z,90.16
2019-03-28T11:10:07.534Z,90.29
2019-03-28T11:11:11.834Z,90.28
2019-03-28T11:12:16.160Z,90.27
2019-03-28T11:13:20.469Z,90.38
2019-03-28T11:14:24.794Z,90.43
2019-03-28T11:15:29.061Z,90.49
2019-03-28T11:16:33.373Z,90.58
2019-03-28T11:17:37.708Z,90.45
2019-03-28T11:18:42.020Z,90.43
2019-03-28T11:19:46.210Z,90.17
2019-03-28T11:20:50.586Z,89.87
2019-03-28T11:21:54.819Z,89.91
2019-03-28T11:23:02.215Z,89.77
2019-03-28T11:24:03.550Z,89.30
2019-03-28T11:25:07.862Z,89.19
2019-03-28T11:26:12.210Z,89.00
2019-03-28T11:27:16.529Z,89.03
2019-03-28T11:28:23.417Z,89.31
2019-03-28T11:29:25.224Z,89.55
2019-03-28T11:30:29.557Z,89.69
2019-03-28T11:31:45.690Z,89.72
2019-03-28T11:32:38.234Z,89.72
2019-03-28T11:33:42.345Z,89.74
2019-03-28T11:34:46.607Z,89.71
2019-03-28T11:35:50.935Z,89.49
2019-03-28T11:36:55.207Z,89.55
2019-03-28T11:37:59.571Z,89.51
2019-03-28T11:39:03.866Z,88.74
2019-03-28T11:41:12.424Z,88.31
2019-03-28T11:42:16.824Z,88.23
2019-03-28T11:42:35.589Z,88.63
2019-03-28T11:43:21.037Z,88.10
2019-03-28T11:44:25.465Z,88.42
2019-03-28T11:45:29.675Z,88.30
2019-03-28T11:46:34.043Z,88.24
2019-03-28T11:47:38.208Z,88.38
2019-03-28T11:48:42.557Z,88.07
2019-03-28T11:49:46.966Z,88.25
2019-03-28T11:50:51.137Z,88.15
2019-03-28T11:51:55.436Z,88.39
2019-03-28T11:52:59.736Z,88.52
2019-03-28T11:54:04.101Z,88.50
2019-03-28T11:55:08.391Z,88.34
2019-03-28T11:56:12.649Z,88.15
2019-03-28T11:57:16.972Z,88.17
2019-03-28T11:58:21.279Z,88.08
2019-03-28T11:59:25.550Z,88.26
2019-03-28T12:00:29.949Z,88.21
2019-03-28T12:01:34.242Z,88.06
2019-03-28T12:02:38.512Z,87.97
2019-03-28T12:03:42.766Z,88.06
2019-03-28T12:04:47.052Z,87.96
2019-03-28T12:05:53.106Z,87.82
2019-03-28T12:06:55.759Z,87.84
2019-03-28T12:08:00.004Z,87.99
2019-03-28T12:09:04.281Z,88.17
2019-03-28T12:10:08.522Z,88.15
2019-03-28T12:11:12.859Z,88.24
2019-03-28T12:12:17.182Z,88.34
2019-03-28T12:13:21.546Z,88.39
2019-03-28T12:14:25.745Z,88.48
2019-03-28T12:15:30.161Z,88.30
2019-03-28T12:16:34.524Z,88.25
2019-03-28T12:17:41.762Z,88.34
2019-03-28T12:18:45.110Z,88.06
2019-03-28T12:19:49.447Z,87.71
2019-03-28T12:20:53.724Z,88.00
2019-03-28T12:21:57.905Z,88.05
2019-03-28T12:23:02.414Z,87.50
2019-03-28T12:24:06.543Z,87.29
2019-03-28T12:25:11.073Z,87.39
2019-03-28T12:26:15.265Z,87.54
2019-03-28T12:27:19.470Z,87.56
2019-03-28T12:28:23.861Z,87.38
2019-03-28T12:29:28.225Z,87.17
2019-03-28T12:30:32.450Z,87.49
2019-03-28T12:31:50.748Z,87.56
2019-03-28T12:32:53.168Z,87.58
2019-03-28T12:33:57.343Z,87.41
2019-03-28T12:35:01.669Z,87.35
2019-03-28T12:36:05.856Z,87.51
2019-03-28T12:37:10.882Z,87.61
2019-03-28T12:38:14.345Z,87.66
2019-03-28T12:39:18.611Z,87.70
2019-03-28T12:40:22.885Z,87.85
2019-03-28T12:41:27.076Z,88.04
2019-03-28T12:42:31.326Z,88.06
2019-03-28T12:43:35.560Z,87.96
2019-03-28T12:44:39.702Z,88.00
2019-03-28T12:45:44.104Z,87.95
2019-03-28T12:46:48.279Z,87.73
2019-03-28T12:47:52.478Z,87.92
2019-03-28T12:48:56.719Z,87.80
2019-03-28T12:50:00.987Z,88.03
2019-03-28T12:51:05.220Z,88.19
2019-03-28T12:52:09.452Z,87.89
2019-03-28T12:53:13.720Z,87.59
2019-03-28T12:54:17.968Z,87.08
2019-03-28T12:55:22.263Z,87.26
2019-03-28T12:56:26.638Z,87.49
2019-03-28T12:57:30.879Z,87.56
2019-03-28T12:58:34.956Z,87.65
2019-03-28T12:59:39.204Z,87.64
2019-03-28T13:00:43.519Z,87.59
2019-03-28T13:01:47.741Z,87.53
2019-03-28T13:02:51.979Z,87.21
2019-03-28T13:03:56.333Z,87.30
2019-03-28T13:05:00.509Z,87.41
2019-03-28T13:06:04.996Z,87.56
2019-03-28T13:07:09.190Z,87.39
2019-03-28T13:08:13.434Z,87.15
2019-03-28T13:09:17.735Z,86.84
2019-03-28T13:10:21.899Z,86.51
2019-03-28T13:11:26.120Z,85.89
2019-03-28T13:12:30.343Z,85.67
2019-03-28T13:13:34.620Z,86.18
2019-03-28T13:14:38.841Z,86.40
2019-03-28T13:15:43.116Z,86.61
2019-03-28T13:16:47.372Z,86.72
2019-03-28T13:17:51.629Z,86.83
2019-03-28T13:18:55.868Z,86.70
2019-03-28T13:20:00.389Z,86.76
2019-03-28T13:21:13.342Z,86.99
2019-03-28T13:22:08.657Z,86.84
2019-03-28T13:23:13.027Z,86.47
2019-03-28T13:24:17.227Z,86.56
2019-03-28T13:25:21.478Z,86.84
2019-03-28T13:26:25.744Z,86.97
2019-03-28T13:27:29.990Z,86.92
2019-03-28T13:28:34.218Z,86.98
2019-03-28T13:29:38.478Z,87.08
2019-03-28T13:30:42.679Z,87.00
2019-03-28T13:31:46.919Z,86.84
2019-03-28T13:32:51.133Z,86.89
2019-03-28T13:33:55.408Z,86.92
2019-03-28T13:34:59.645Z,87.15
2019-03-28T13:36:03.890Z,87.18
2019-03-28T13:37:08.191Z,87.03
2019-03-28T13:38:12.429Z,86.97
2019-03-28T13:39:16.710Z,86.85
2019-03-28T13:40:20.944Z,86.60
2019-03-28T13:41:25.255Z,86.33
2019-03-28T13:42:29.487Z,86.52
2019-03-28T13:43:33.707Z,86.33
2019-03-28T13:44:37.963Z,86.48
2019-03-28T13:45:42.199Z,86.59
2019-03-28T13:46:46.468Z,86.53
2019-03-28T13:47:54.193Z,86.42